Time;durP1;ratioP1;P1;durP2;ratioP2;P2;SDS_P1;SDS_P2;PMS_P1;PMS_P2;Temp;Humidity;BMP_temperature;BMP_pressure;BME280_temperature;BME280_humidity;BME280_pressure;Samples;Min_cycle;Max_cycle;Signal;HPM_P1;HPM_P2
2021/10/25 00:02:10;;;;;;;16.08;14.43;;;5.00;99.90;;;;;;5067942;28;20021;-78
2021/10/25 00:04:35;;;;;;;19.20;15.13;;;5.00;99.90;;;;;;5073102;28;20036;-77
2021/10/25 00:07:01;;;;;;;17.48;15.02;;;4.90;99.90;;;;;;5040930;28;20112;-78
2021/10/25 00:09:28;;;;;;;17.73;14.75;;;5.00;99.90;;;;;;5020676;28;20033;-77
2021/10/25 00:11:53;;;;;;;27.45;14.73;;;5.00;99.90;;;;;;5004095;28;20122;-78
2021/10/25 00:14:19;;;;;;;15.68;13.98;;;5.00;99.90;;;;;;5023898;28;20106;-78
2021/10/25 00:16:45;;;;;;;19.10;16.70;;;5.00;99.90;;;;;;5009632;28;20085;-76
2021/10/25 00:19:11;;;;;;;18.33;15.30;;;4.90;99.90;;;;;;5028061;28;20069;-78
2021/10/25 00:21:37;;;;;;;18.50;14.70;;;4.90;99.90;;;;;;5025244;28;20026;-78
2021/10/25 00:24:03;;;;;;;21.95;16.85;;;4.90;99.90;;;;;;5031957;28;20070;-77
2021/10/25 00:26:30;;;;;;;18.30;16.48;;;4.80;99.90;;;;;;5054768;28;20053;-78
2021/10/25 00:28:55;;;;;;;21.48;16.05;;;4.90;99.90;;;;;;5053516;28;20032;-77
2021/10/25 00:31:21;;;;;;;22.10;15.95;;;4.90;99.90;;;;;;5057631;28;20030;-79
2021/10/25 00:33:47;;;;;;;17.73;15.73;;;4.80;99.90;;;;;;5060194;28;20640;-78
2021/10/25 00:36:13;;;;;;;16.23;13.40;;;4.80;99.90;;;;;;5045768;28;20030;-78
2021/10/25 00:38:39;;;;;;;19.17;15.80;;;4.80;99.90;;;;;;5036498;28;20061;-77
2021/10/25 00:41:05;;;;;;;17.40;14.85;;;4.80;99.90;;;;;;5035536;28;20041;-77
2021/10/25 00:43:30;;;;;;;23.02;18.05;;;4.80;99.90;;;;;;5043744;28;20021;-76
2021/10/25 00:45:56;;;;;;;19.92;17.77;;;4.80;99.90;;;;;;5050793;28;20026;-77
2021/10/25 00:48:22;;;;;;;17.67;15.80;;;4.80;99.90;;;;;;5045175;28;20032;-77
2021/10/25 00:50:48;;;;;;;16.88;14.55;;;4.80;99.90;;;;;;5046769;28;20026;-77
2021/10/25 00:53:13;;;;;;;19.08;16.10;;;4.80;99.90;;;;;;5051236;28;20021;-76
2021/10/25 00:55:40;;;;;;;17.67;14.70;;;4.70;99.90;;;;;;5050175;28;20037;-76
2021/10/25 00:58:07;;;;;;;23.23;16.25;;;4.70;99.90;;;;;;5051354;28;20053;-77
2021/10/25 01:00:34;;;;;;;18.90;15.07;;;4.70;99.90;;;;;;5049792;28;20052;-76
2021/10/25 01:03:01;;;;;;;20.25;17.83;;;4.70;99.90;;;;;;5047934;28;20029;-77
2021/10/25 01:05:27;;;;;;;19.77;16.35;;;4.70;99.90;;;;;;5044878;28;20010;-78
2021/10/25 01:07:54;;;;;;;18.55;15.95;;;4.70;99.90;;;;;;5054029;28;20077;-77
2021/10/25 01:10:20;;;;;;;18.50;15.77;;;4.70;99.90;;;;;;5057557;28;20021;-75
2021/10/25 01:12:47;;;;;;;21.40;17.58;;;4.60;99.90;;;;;;5059287;28;20024;-76
2021/10/25 01:15:13;;;;;;;21.50;16.23;;;4.60;99.90;;;;;;5051877;28;20037;-78
2021/10/25 01:17:38;;;;;;;19.98;16.02;;;4.60;99.90;;;;;;5023468;28;20021;-78
2021/10/25 01:20:05;;;;;;;16.10;14.38;;;4.60;99.90;;;;;;5039203;28;20030;-78
2021/10/25 01:22:31;;;;;;;21.92;17.02;;;4.60;99.90;;;;;;5025716;28;20022;-78
2021/10/25 01:24:57;;;;;;;18.40;15.90;;;4.60;99.90;;;;;;5043488;28;20033;-78
2021/10/25 01:27:23;;;;;;;17.08;15.45;;;4.60;99.90;;;;;;5028650;28;20037;-79
2021/10/25 01:29:49;;;;;;;18.17;15.38;;;4.70;99.90;;;;;;5040321;28;20028;-79
2021/10/25 01:32:14;;;;;;;20.88;16.48;;;4.70;99.90;;;;;;5043338;28;20052;-77
2021/10/25 01:34:41;;;;;;;17.55;15.77;;;4.70;99.90;;;;;;5042505;28;20022;-78
2021/10/25 01:37:08;;;;;;;19.88;15.30;;;4.70;99.90;;;;;;5043506;28;20033;-77
2021/10/25 01:39:34;;;;;;;21.42;16.88;;;4.80;99.90;;;;;;5045433;28;20037;-76
2021/10/25 01:42:00;;;;;;;18.88;15.88;;;4.80;99.90;;;;;;5036891;28;20041;-77
2021/10/25 01:44:25;;;;;;;18.75;16.52;;;4.80;99.90;;;;;;5013928;28;20433;-78
2021/10/25 01:46:51;;;;;;;17.73;15.05;;;4.90;99.90;;;;;;5041855;28;20025;-79
2021/10/25 01:49:18;;;;;;;19.55;15.52;;;4.90;99.90;;;;;;5040603;28;20067;-77
2021/10/25 01:51:43;;;;;;;21.38;16.83;;;4.80;99.90;;;;;;5046847;28;20030;-78
2021/10/25 01:54:09;;;;;;;18.38;15.20;;;4.80;99.90;;;;;;5007617;28;20052;-77
2021/10/25 01:56:37;;;;;;;21.77;16.20;;;4.80;99.90;;;;;;5038465;28;20053;-77
2021/10/25 01:59:03;;;;;;;17.30;14.95;;;4.80;99.90;;;;;;5053821;28;20022;-76
2021/10/25 02:01:29;;;;;;;18.73;15.65;;;4.80;99.90;;;;;;5041019;28;20021;-77
2021/10/25 02:03:55;;;;;;;16.63;14.63;;;4.80;99.90;;;;;;5037725;28;20064;-76
2021/10/25 02:06:20;;;;;;;18.48;15.27;;;4.70;99.90;;;;;;5040701;28;20033;-76
2021/10/25 02:08:46;;;;;;;20.38;15.70;;;4.70;99.90;;;;;;5026588;28;20087;-78
2021/10/25 02:11:12;;;;;;;19.33;17.33;;;4.70;99.90;;;;;;5044475;28;20025;-77
2021/10/25 02:13:37;;;;;;;17.85;15.95;;;4.60;99.90;;;;;;5032737;28;20029;-76
2021/10/25 02:16:03;;;;;;;26.08;15.48;;;4.60;99.90;;;;;;5031188;28;20057;-76
2021/10/25 02:18:29;;;;;;;17.83;14.68;;;4.60;99.90;;;;;;5030580;28;20034;-77
2021/10/25 02:20:54;;;;;;;17.00;14.93;;;4.50;99.90;;;;;;5028278;28;20041;-79
2021/10/25 02:23:20;;;;;;;18.08;15.13;;;4.50;99.90;;;;;;5034189;28;20393;-77
2021/10/25 02:25:46;;;;;;;16.95;14.90;;;4.50;99.90;;;;;;5035532;28;20025;-78
2021/10/25 02:28:12;;;;;;;19.33;15.18;;;4.50;99.90;;;;;;5042861;28;20021;-79
2021/10/25 02:30:37;;;;;;;16.42;14.73;;;4.50;99.90;;;;;;5026048;28;20056;-78
2021/10/25 02:33:03;;;;;;;19.10;15.43;;;4.40;99.90;;;;;;5043868;28;20551;-78
2021/10/25 02:35:29;;;;;;;18.38;14.73;;;4.40;99.90;;;;;;5041143;28;20476;-78
2021/10/25 02:37:56;;;;;;;16.60;14.82;;;4.40;99.90;;;;;;5039314;28;20055;-78
2021/10/25 02:40:27;;;;;;;16.85;15.13;;;4.40;99.90;;;;;;5041210;28;20033;-79
2021/10/25 02:42:53;;;;;;;;;;;4.50;99.90;;;;;;5043012;28;20030;-78
2021/10/25 02:45:19;;;;;;;16.48;14.43;;;4.50;99.90;;;;;;5041907;28;19948;-78
2021/10/25 02:47:45;;;;;;;16.85;12.23;;;4.50;99.90;;;;;;5040450;28;20025;-78
2021/10/25 02:50:11;;;;;;;17.83;13.00;;;4.50;99.90;;;;;;5046987;28;20049;-77
2021/10/25 02:52:37;;;;;;;13.18;11.88;;;4.40;99.90;;;;;;5049549;28;20029;-77
2021/10/25 02:55:03;;;;;;;15.90;13.10;;;4.40;99.90;;;;;;5049390;28;20075;-77
2021/10/25 02:57:30;;;;;;;15.52;13.93;;;4.40;99.90;;;;;;5043781;28;20505;-78
2021/10/25 02:59:56;;;;;;;14.65;12.45;;;4.40;99.90;;;;;;5041824;28;20128;-76
2021/10/25 03:02:21;;;;;;;15.05;13.45;;;4.40;99.90;;;;;;5042210;28;20040;-78
2021/10/25 03:04:47;;;;;;;15.35;11.82;;;4.40;99.90;;;;;;5040090;28;20036;-78
2021/10/25 03:07:13;;;;;;;15.10;12.18;;;4.40;99.90;;;;;;5036355;28;20030;-77
2021/10/25 03:09:38;;;;;;;16.70;14.20;;;4.30;99.90;;;;;;5023789;28;20392;-77
2021/10/25 03:12:05;;;;;;;17.95;13.40;;;4.30;99.90;;;;;;5024375;28;20059;-78
2021/10/25 03:14:30;;;;;;;14.80;12.52;;;4.30;99.90;;;;;;5040829;28;20017;-77
2021/10/25 03:16:56;;;;;;;18.25;13.13;;;4.30;99.90;;;;;;5041084;28;20393;-77
2021/10/25 03:19:23;;;;;;;19.52;11.95;;;4.30;99.90;;;;;;5044201;28;20525;-78
2021/10/25 03:21:49;;;;;;;20.17;13.65;;;4.30;99.90;;;;;;5039278;28;20036;-78
2021/10/25 03:24:15;;;;;;;21.00;13.68;;;4.30;99.90;;;;;;5040070;28;20052;-77
2021/10/25 03:26:41;;;;;;;17.77;14.88;;;4.30;99.90;;;;;;5042736;28;20018;-78
2021/10/25 03:29:07;;;;;;;22.25;13.02;;;4.30;99.90;;;;;;5041742;28;20052;-78
2021/10/25 03:31:33;;;;;;;14.05;12.30;;;4.20;99.90;;;;;;5049632;28;20042;-77
2021/10/25 03:33:58;;;;;;;15.48;11.90;;;4.10;99.90;;;;;;5043326;28;20022;-77
2021/10/25 03:36:27;;;;;;;14.82;12.35;;;4.20;99.90;;;;;;5030182;28;20033;-77
2021/10/25 03:38:54;;;;;;;14.45;11.95;;;4.20;99.90;;;;;;5025958;28;20032;-78
2021/10/25 03:41:28;;;;;;;16.13;12.40;;;4.20;99.90;;;;;;5040483;28;20049;-78
2021/10/25 03:44:06;;;;;;;18.98;12.30;;;4.20;99.90;;;;;;5040014;28;20046;-78
2021/10/25 03:46:45;;;;;;;19.88;12.32;;;4.20;99.90;;;;;;5039839;28;20037;-78
2021/10/25 03:49:18;;;;;;;23.48;12.85;;;4.10;99.90;;;;;;5028863;28;20018;-77
2021/10/25 03:51:44;;;;;;;26.55;14.77;;;4.10;99.90;;;;;;5026949;28;20052;-78
2021/10/25 03:59:21;;;;;;;16.23;12.40;;;4.10;99.90;;;;;;5029202;28;20040;-77
2021/10/25 04:27:10;;;;;;;20.98;12.93;;;3.90;99.90;;;;;;5059672;28;20028;-76
2021/10/25 04:29:35;;;;;;;16.83;13.23;;;3.90;99.90;;;;;;5059831;28;20111;-76
2021/10/25 04:32:06;;;;;;;17.80;13.68;;;3.90;99.90;;;;;;5057717;28;20034;-78
2021/10/25 04:34:35;;;;;;;19.45;13.23;;;3.80;99.90;;;;;;5057436;28;20032;-77
2021/10/25 04:37:01;;;;;;;18.65;12.05;;;3.80;99.90;;;;;;5044546;28;20033;-77
2021/10/25 04:39:26;;;;;;;16.38;12.98;;;3.80;99.90;;;;;;5052454;28;20029;-77
2021/10/25 04:41:52;;;;;;;17.75;13.38;;;3.80;99.90;;;;;;5034184;28;20041;-77
2021/10/25 04:44:18;;;;;;;14.90;11.90;;;3.80;99.90;;;;;;5047987;28;20040;-79
2021/10/25 04:46:44;;;;;;;13.57;11.80;;;3.80;99.90;;;;;;5032354;28;20033;-78
2021/10/25 04:49:09;;;;;;;16.90;12.35;;;3.90;99.90;;;;;;5036241;28;20317;-79
2021/10/25 04:51:35;;;;;;;15.93;12.77;;;3.90;99.90;;;;;;5040639;28;20509;-78
2021/10/25 04:54:02;;;;;;;15.02;11.98;;;3.90;99.90;;;;;;5016011;28;20022;-78
2021/10/25 04:56:28;;;;;;;17.17;12.60;;;4.00;99.90;;;;;;5034751;28;20098;-77
2021/10/25 04:58:54;;;;;;;17.13;12.32;;;4.00;99.90;;;;;;5033699;28;20018;-77
2021/10/25 05:01:20;;;;;;;19.23;13.30;;;4.00;99.90;;;;;;5036615;28;20026;-77
2021/10/25 05:03:45;;;;;;;14.70;13.20;;;4.00;99.90;;;;;;5036511;28;20033;-78
2021/10/25 05:06:17;;;;;;;15.30;13.70;;;3.90;99.90;;;;;;5056950;28;20033;-77
2021/10/25 05:08:44;;;;;;;23.50;13.55;;;3.90;99.90;;;;;;5056712;28;20111;-77
2021/10/25 05:11:09;;;;;;;17.15;12.32;;;3.90;99.90;;;;;;5053958;28;20017;-78
2021/10/25 05:13:35;;;;;;;18.13;13.73;;;3.90;99.90;;;;;;5048311;28;20029;-78
2021/10/25 05:16:00;;;;;;;20.05;14.85;;;4.00;99.90;;;;;;5041197;28;20049;-77
2021/10/25 05:18:26;;;;;;;18.85;14.43;;;4.00;99.90;;;;;;5055992;28;20033;-78
2021/10/25 05:20:52;;;;;;;24.98;14.32;;;4.10;99.90;;;;;;5057475;28;20025;-79
2021/10/25 05:23:17;;;;;;;14.82;12.50;;;4.10;99.90;;;;;;5057532;28;20029;-79
2021/10/25 05:25:43;;;;;;;22.52;14.25;;;4.10;99.90;;;;;;5055192;28;20100;-77
2021/10/25 05:28:08;;;;;;;25.55;16.02;;;4.10;99.90;;;;;;5054340;28;20032;-77
2021/10/25 05:30:34;;;;;;;19.42;15.35;;;4.10;99.90;;;;;;5056488;28;20021;-79
2021/10/25 05:33:00;;;;;;;24.33;15.65;;;4.10;99.90;;;;;;5047539;28;20036;-77
2021/10/25 05:35:26;;;;;;;19.95;15.45;;;4.10;99.90;;;;;;5052945;28;20025;-76
2021/10/25 05:37:51;;;;;;;25.33;16.08;;;4.10;99.90;;;;;;5057993;28;20100;-77
2021/10/25 05:40:17;;;;;;;20.13;14.48;;;4.00;99.90;;;;;;5058699;28;20033;-77
2021/10/25 05:42:43;;;;;;;23.45;14.10;;;4.00;99.90;;;;;;5056677;28;20033;-76
2021/10/25 05:45:08;;;;;;;22.70;15.23;;;4.00;99.90;;;;;;5057780;28;20021;-77
2021/10/25 05:47:34;;;;;;;17.35;15.30;;;4.00;99.90;;;;;;5055659;28;20037;-76
2021/10/25 05:50:00;;;;;;;22.70;15.23;;;4.00;99.90;;;;;;5056515;28;20025;-75
2021/10/25 05:52:26;;;;;;;22.38;13.88;;;4.00;99.90;;;;;;5056231;28;20112;-75
2021/10/25 05:54:53;;;;;;;21.02;13.32;;;4.00;99.90;;;;;;5049456;28;20009;-78
2021/10/25 05:57:21;;;;;;;18.30;13.30;;;4.00;99.90;;;;;;5046170;23;20054;-78
2021/10/25 05:59:48;;;;;;;16.20;13.57;;;4.00;99.90;;;;;;5022326;28;20427;-78
2021/10/25 06:02:27;;;;;;;20.45;15.38;;;3.90;99.90;;;;;;5041743;28;20535;-76
2021/10/25 06:04:52;;;;;;;24.42;13.48;;;4.00;99.90;;;;;;5040599;28;20546;-78
2021/10/25 06:07:20;;;;;;;20.05;13.95;;;3.90;99.90;;;;;;5024325;28;20045;-77
2021/10/25 06:09:46;;;;;;;15.52;12.63;;;4.10;99.90;;;;;;5004510;28;20018;-77
2021/10/25 06:12:19;;;;;;;19.25;13.30;;;4.20;99.90;;;;;;5004082;28;20095;-78
2021/10/25 06:14:46;;;;;;;17.58;12.52;;;4.30;99.90;;;;;;5022803;28;20021;-78
2021/10/25 06:17:38;;;;;;;14.50;12.05;;;4.50;99.90;;;;;;5005781;28;20022;-79
2021/10/25 06:20:10;;;;;;;18.63;12.20;;;4.50;99.90;;;;;;5001810;28;20038;-79
2021/10/25 06:22:38;;;;;;;13.48;11.85;;;4.60;99.90;;;;;;4988511;28;20090;-78
2021/10/25 06:25:05;;;;;;;14.48;10.80;;;4.60;99.90;;;;;;5013372;28;20026;-77
2021/10/25 06:27:31;;;;;;;17.70;11.68;;;4.70;99.90;;;;;;5022196;28;20371;-79
2021/10/25 06:29:56;;;;;;;17.70;11.20;;;4.70;99.90;;;;;;5020696;28;20029;-79
2021/10/25 06:32:22;;;;;;;24.42;12.40;;;4.60;99.90;;;;;;5022958;28;20069;-78
2021/10/25 06:34:50;;;;;;;15.45;10.85;;;4.60;99.90;;;;;;5003574;28;20099;-78
2021/10/25 06:37:15;;;;;;;12.07;10.02;;;4.60;99.90;;;;;;5021868;28;20033;-79
2021/10/25 06:39:52;;;;;;;13.65;10.93;;;4.70;99.90;;;;;;5021300;28;20474;-78
2021/10/25 06:42:18;;;;;;;13.63;10.02;;;4.70;99.90;;;;;;5022204;28;20037;-80
2021/10/25 06:44:57;;;;;;;20.10;11.95;;;4.70;99.90;;;;;;5012497;28;20446;-79
2021/10/25 06:47:23;;;;;;;12.85;11.48;;;4.70;99.90;;;;;;5027619;28;20442;-79
2021/10/25 06:49:49;;;;;;;15.13;11.15;;;4.70;99.90;;;;;;5007797;28;20359;-79
2021/10/25 06:52:15;;;;;;;14.32;11.35;;;4.70;99.90;;;;;;5021423;28;20100;-79
2021/10/25 06:54:41;;;;;;;17.25;10.20;;;5.00;99.90;;;;;;5022297;28;20045;-77
2021/10/25 06:57:06;;;;;;;15.95;10.63;;;5.20;99.90;;;;;;5022397;28;20390;-78
2021/10/25 06:59:32;;;;;;;19.67;10.68;;;5.30;99.90;;;;;;5023420;28;20033;-77
2021/10/25 07:01:58;;;;;;;21.52;10.65;;;5.30;99.90;;;;;;5022161;28;20033;-78
2021/10/25 07:04:23;;;;;;;18.73;10.70;;;5.50;99.90;;;;;;5005150;28;20478;-79
2021/10/25 07:06:51;;;;;;;11.68;10.48;;;5.40;99.90;;;;;;5018724;28;20030;-80
2021/10/25 07:09:18;;;;;;;12.32;10.85;;;5.40;99.90;;;;;;5021523;28;20034;-80
2021/10/25 07:11:45;;;;;;;14.35;11.18;;;5.40;99.90;;;;;;5014899;28;20431;-80
2021/10/25 07:14:12;;;;;;;12.90;10.75;;;5.30;99.90;;;;;;4997675;28;20053;-80
2021/10/25 07:16:52;;;;;;;16.00;11.88;;;5.20;99.90;;;;;;4993413;28;20371;-80
2021/10/25 07:27:42;;;;;;;16.58;9.35;;;5.50;99.90;;;;;;5017639;28;20088;-80
2021/10/25 08:10:39;;;;;;;12.27;10.15;;;8.10;99.90;;;;;;5026131;28;20013;-78
2021/10/25 08:13:11;;;;;;;12.45;9.52;;;8.20;99.90;;;;;;5013414;28;20088;-78
2021/10/25 08:15:42;;;;;;;11.13;9.85;;;8.30;99.90;;;;;;5008419;28;20018;-78
2021/10/25 08:18:21;;;;;;;14.60;9.33;;;8.30;99.90;;;;;;5026409;28;20049;-80
2021/10/25 08:20:47;;;;;;;10.50;8.13;;;8.20;99.90;;;;;;5008564;28;20022;-78
2021/10/25 08:23:13;;;;;;;11.55;9.10;;;8.40;99.90;;;;;;5026943;28;20042;-79
2021/10/25 08:25:39;;;;;;;13.60;9.13;;;8.20;99.90;;;;;;5037067;28;20052;-78
2021/10/25 08:28:05;;;;;;;11.95;8.27;;;8.30;99.90;;;;;;5038435;28;20038;-78
2021/10/25 08:30:30;;;;;;;15.88;9.27;;;8.30;99.90;;;;;;5038515;28;20069;-78
2021/10/25 08:33:06;;;;;;;9.57;8.45;;;8.20;99.90;;;;;;5022011;28;20035;-78
2021/10/25 08:41:00;;;;;;;13.05;7.93;;;8.90;99.90;;;;;;5023836;28;20032;-80
2021/10/25 08:43:26;;;;;;;11.10;9.48;;;9.20;99.90;;;;;;5020928;28;20030;-80
2021/10/25 08:45:56;;;;;;;14.65;9.38;;;9.30;99.90;;;;;;5021754;28;20030;-80
2021/10/25 08:48:22;;;;;;;10.38;8.88;;;9.30;99.90;;;;;;5005831;28;20072;-80
2021/10/25 08:50:47;;;;;;;9.25;8.10;;;9.40;99.90;;;;;;5006364;28;20429;-80
2021/10/25 08:53:13;;;;;;;10.45;8.55;;;9.20;99.90;;;;;;5005804;28;20025;-76
2021/10/25 08:55:39;;;;;;;11.38;9.05;;;9.30;99.90;;;;;;5010882;28;20029;-77
2021/10/25 08:58:06;;;;;;;14.10;8.95;;;9.30;99.90;;;;;;5030174;28;20030;-78
2021/10/25 09:00:39;;;;;;;9.55;8.13;;;9.30;99.90;;;;;;5031485;28;20103;-77
2021/10/25 09:03:05;;;;;;;9.65;8.68;;;9.20;99.90;;;;;;5029028;28;20029;-78
2021/10/25 09:05:32;;;;;;;12.48;10.18;;;9.10;99.90;;;;;;5023565;28;20033;-78
2021/10/25 09:08:04;;;;;;;14.80;10.00;;;9.00;99.90;;;;;;5023648;28;20080;-79
2021/10/25 09:10:44;;;;;;;13.45;8.85;;;9.00;99.90;;;;;;5024631;28;20029;-77
2021/10/25 09:13:16;;;;;;;11.52;9.25;;;9.30;99.90;;;;;;5023263;28;20048;-77
2021/10/25 09:15:49;;;;;;;11.30;8.85;;;9.40;99.90;;;;;;5022665;28;20022;-78
2021/10/25 09:18:22;;;;;;;11.40;8.50;;;9.30;99.90;;;;;;5023701;28;20030;-77
2021/10/25 09:20:55;;;;;;;10.80;8.57;;;9.60;99.90;;;;;;4987562;28;20026;-77
2021/10/25 09:23:30;;;;;;;10.85;8.98;;;9.80;99.90;;;;;;5006637;28;20032;-77
2021/10/25 09:26:01;;;;;;;9.18;8.25;;;9.90;99.90;;;;;;5022653;28;20401;-77
2021/10/25 09:28:34;;;;;;;10.43;8.65;;;9.90;99.90;;;;;;5030447;28;20040;-79
2021/10/25 09:31:02;;;;;;;15.38;8.63;;;10.00;99.90;;;;;;5027365;28;20022;-78
2021/10/25 09:33:40;;;;;;;11.82;9.10;;;9.80;99.90;;;;;;5016029;28;20018;-75
2021/10/25 09:36:10;;;;;;;10.85;8.48;;;9.80;99.90;;;;;;5009333;28;20046;-77
2021/10/25 09:46:38;;;;;;;10.52;8.13;;;10.30;99.90;;;;;;5036106;28;20030;-77
2021/10/25 09:51:29;;;;;;;9.25;7.50;;;10.90;99.90;;;;;;5018358;28;20276;-77
2021/10/25 09:53:59;;;;;;;9.30;7.50;;;10.70;99.90;;;;;;5031631;28;20080;-77
2021/10/25 09:56:33;;;;;;;9.55;8.05;;;11.00;99.90;;;;;;5029768;28;20098;-78
2021/10/25 10:01:41;;;;;;;9.63;7.80;;;11.50;99.90;;;;;;5016065;28;20393;-78
2021/10/25 10:04:07;;;;;;;8.30;7.47;;;11.70;99.90;;;;;;5013987;28;20033;-77
2021/10/25 10:06:33;;;;;;;10.05;7.85;;;11.80;99.90;;;;;;5013647;28;20083;-77
2021/10/25 10:08:59;;;;;;;14.15;7.50;;;11.80;99.90;;;;;;5013483;28;20022;-77
2021/10/25 10:11:25;;;;;;;9.68;7.75;;;11.80;99.90;;;;;;4995708;28;20524;-76
2021/10/25 10:13:52;;;;;;;10.10;8.00;;;11.90;99.90;;;;;;4996272;28;20026;-75
2021/10/25 10:16:18;;;;;;;12.32;6.78;;;11.80;99.90;;;;;;5013839;28;20022;-77
2021/10/25 10:18:52;;;;;;;9.05;7.07;;;11.80;99.90;;;;;;5012728;28;20056;-78
2021/10/25 10:21:18;;;;;;;12.95;7.40;;;11.80;99.90;;;;;;5011093;28;20025;-78
2021/10/25 10:23:54;;;;;;;7.97;7.18;;;12.00;99.90;;;;;;4995562;28;20502;-76
2021/10/25 10:26:20;;;;;;;9.25;7.40;;;12.20;99.90;;;;;;5013485;28;20442;-77
2021/10/25 10:28:50;;;;;;;9.18;7.15;;;12.30;99.90;;;;;;5013829;28;20076;-77
2021/10/25 10:31:18;;;;;;;11.13;7.90;;;12.40;99.90;;;;;;5014091;28;20113;-77
2021/10/25 10:33:52;;;;;;;10.27;7.50;;;12.40;99.90;;;;;;5014708;28;20077;-77
2021/10/25 10:36:21;;;;;;;9.15;8.00;;;12.40;99.90;;;;;;5013128;28;20084;-77
2021/10/25 10:38:54;;;;;;;12.60;8.57;;;12.50;99.90;;;;;;4996722;28;20030;-77
2021/10/25 10:41:23;;;;;;;9.45;8.43;;;12.50;99.90;;;;;;5013304;28;20101;-77
2021/10/25 10:44:21;;;;;;;14.63;8.05;;;12.50;99.90;;;;;;5014259;28;20028;-77
2021/10/25 10:46:56;;;;;;;11.13;7.70;;;12.70;99.90;;;;;;4979233;28;20076;-78
2021/10/25 10:49:27;;;;;;;13.75;7.78;;;12.90;99.90;;;;;;5013279;28;20030;-77
2021/10/25 10:55:03;;;;;;;8.10;7.28;;;13.00;99.90;;;;;;5013660;28;20092;-76
2021/10/25 11:00:35;;;;;;;10.13;7.65;;;13.00;99.90;;;;;;5012046;28;20121;-77
2021/10/25 11:03:02;;;;;;;9.25;6.50;;;13.00;99.90;;;;;;4995399;28;20072;-77
2021/10/25 11:06:01;;;;;;;11.30;7.28;;;13.00;99.90;;;;;;5012740;28;20457;-77
2021/10/25 11:08:35;;;;;;;10.32;7.97;;;12.90;99.90;;;;;;5007999;28;20065;-77
2021/10/25 11:11:09;;;;;;;11.77;7.32;;;12.80;99.90;;;;;;5013853;28;20448;-78
2021/10/25 11:13:41;;;;;;;10.65;7.30;;;12.60;99.90;;;;;;4994769;28;20036;-77
2021/10/25 11:18:47;;;;;;;10.02;7.25;;;12.90;99.90;;;;;;4977759;28;20022;-77
2021/10/25 11:21:23;;;;;;;8.45;6.88;;;13.10;99.90;;;;;;4994177;28;20032;-79
2021/10/25 11:23:59;;;;;;;9.68;6.65;;;13.30;99.90;;;;;;5013212;28;20071;-76
2021/10/25 11:26:31;;;;;;;7.43;6.68;;;13.50;99.90;;;;;;5012686;28;20026;-76
2021/10/25 11:28:57;;;;;;;7.68;6.55;;;13.50;99.90;;;;;;4995704;28;20032;-77
2021/10/25 11:31:23;;;;;;;7.90;6.40;;;13.60;99.90;;;;;;5014173;28;20081;-76
2021/10/25 11:33:50;;;;;;;12.88;6.47;;;13.90;99.90;;;;;;5013018;28;20022;-77
2021/10/25 11:36:20;;;;;;;9.48;6.57;;;14.10;99.90;;;;;;5013992;28;20034;-77
2021/10/25 11:38:45;;;;;;;11.50;7.18;;;13.90;99.90;;;;;;5021582;28;20074;-75
2021/10/25 11:41:12;;;;;;;8.35;6.40;;;14.10;99.90;;;;;;5032347;28;20056;-75
2021/10/25 11:43:37;;;;;;;11.60;6.32;;;14.10;99.90;;;;;;5027169;28;20018;-76
2021/10/25 11:46:20;;;;;;;7.93;6.28;;;14.10;99.90;;;;;;5033343;28;20024;-77
2021/10/25 11:48:55;;;;;;;11.23;5.68;;;14.10;99.90;;;;;;5034815;28;20034;-76
2021/10/25 11:51:21;;;;;;;8.57;6.97;;;14.20;99.90;;;;;;5033613;28;20190;-77
2021/10/25 11:53:59;;;;;;;6.97;6.00;;;14.30;99.90;;;;;;5000500;28;20048;-76
2021/10/25 11:56:29;;;;;;;9.25;5.60;;;14.10;99.90;;;;;;5025225;23;20076;-74
2021/10/25 11:58:55;;;;;;;9.98;5.95;;;14.10;99.90;;;;;;5056546;28;20037;-75
2021/10/25 12:01:21;;;;;;;8.00;6.20;;;14.10;99.90;;;;;;5052995;28;20487;-75
2021/10/25 12:03:47;;;;;;;8.70;5.60;;;14.30;99.90;;;;;;5022807;28;20025;-75
2021/10/25 12:06:22;;;;;;;8.02;5.88;;;14.40;99.90;;;;;;5029106;28;20030;-75
2021/10/25 12:08:59;;;;;;;11.80;7.20;;;14.50;99.90;;;;;;5015087;28;20021;-75
2021/10/25 12:11:36;;;;;;;8.95;5.43;;;14.60;99.90;;;;;;5036823;28;20072;-73
2021/10/25 12:14:03;;;;;;;9.15;5.10;;;14.70;99.90;;;;;;5045248;28;20480;-75
2021/10/25 12:16:29;;;;;;;10.80;5.43;;;14.70;99.90;;;;;;5019952;28;20026;-76
2021/10/25 12:18:55;;;;;;;5.45;4.68;;;14.80;99.90;;;;;;5036413;28;20171;-74
2021/10/25 12:21:32;;;;;;;5.35;4.75;;;14.80;99.90;;;;;;5037658;28;20052;-76
2021/10/25 12:24:00;;;;;;;5.50;5.00;;;14.90;99.90;;;;;;5038714;28;20181;-76
2021/10/25 12:26:26;;;;;;;6.03;5.43;;;15.00;99.90;;;;;;5037349;28;20029;-76
2021/10/25 12:28:51;;;;;;;7.38;4.45;;;15.00;99.90;;;;;;5036315;28;20025;-76
2021/10/25 12:31:20;;;;;;;6.88;4.90;;;15.10;99.90;;;;;;5031420;28;20436;-74
2021/10/25 12:33:50;;;;;;;6.72;4.75;;;15.20;99.90;;;;;;5037072;28;20017;-74
2021/10/25 12:36:20;;;;;;;6.87;4.37;;;15.20;99.90;;;;;;5037716;28;20026;-75
2021/10/25 12:38:51;;;;;;;10.75;5.10;;;15.30;99.90;;;;;;5037954;28;20060;-75
2021/10/25 12:41:17;;;;;;;7.35;5.07;;;15.20;99.90;;;;;;5040438;28;20028;-76
2021/10/25 12:43:45;;;;;;;4.93;4.28;;;15.10;99.90;;;;;;5043660;28;20033;-75
2021/10/25 12:46:15;;;;;;;6.63;4.70;;;15.20;99.90;;;;;;5037541;28;20375;-75
2021/10/25 12:48:43;;;;;;;8.07;4.13;;;15.20;99.90;;;;;;5039672;28;20025;-75
2021/10/25 12:51:09;;;;;;;12.95;4.35;;;15.10;99.90;;;;;;5052104;28;20814;-74
2021/10/25 12:53:36;;;;;;;9.27;5.07;;;15.10;99.90;;;;;;5055649;28;20064;-74
2021/10/25 12:56:02;;;;;;;8.05;5.70;;;15.10;99.90;;;;;;5044290;28;20067;-76
2021/10/25 12:58:28;;;;;;;7.45;5.05;;;15.20;99.90;;;;;;5037477;28;20022;-76
2021/10/25 13:00:55;;;;;;;10.15;5.28;;;15.40;99.90;;;;;;5038685;28;20034;-75
2021/10/25 13:03:30;;;;;;;12.88;5.15;;;15.60;99.90;;;;;;5041453;28;20081;-75
2021/10/25 13:06:08;;;;;;;8.00;4.78;;;15.80;99.90;;;;;;5049975;28;20017;-76
2021/10/25 13:08:35;;;;;;;8.55;4.53;;;16.00;99.90;;;;;;5046225;28;20025;-76
2021/10/25 13:11:01;;;;;;;8.88;5.57;;;16.20;99.90;;;;;;5038907;28;20029;-77
2021/10/25 13:13:32;;;;;;;9.95;4.40;;;16.30;99.90;;;;;;5035303;28;20033;-75
2021/10/25 13:15:57;;;;;;;8.75;4.90;;;16.40;99.60;;;;;;5043307;28;20025;-76
2021/10/25 13:18:23;;;;;;;9.15;4.05;;;16.50;98.50;;;;;;5042807;28;20056;-77
2021/10/25 13:20:49;;;;;;;6.65;4.68;;;16.30;99.20;;;;;;5043492;28;20029;-75
2021/10/25 13:23:14;;;;;;;7.80;5.40;;;16.30;99.30;;;;;;5040739;28;20029;-75
2021/10/25 13:25:44;;;;;;;7.38;3.95;;;16.50;99.00;;;;;;5018434;28;20025;-75
2021/10/25 13:28:10;;;;;;;8.85;4.13;;;16.50;98.90;;;;;;5039011;28;20021;-76
2021/10/25 13:30:36;;;;;;;6.50;3.78;;;16.50;98.50;;;;;;5037476;28;20077;-75
2021/10/25 13:33:02;;;;;;;5.20;3.58;;;16.50;98.60;;;;;;5037950;28;20442;-75
2021/10/25 13:35:28;;;;;;;6.63;4.50;;;16.50;98.20;;;;;;5038509;28;20470;-76
2021/10/25 13:37:55;;;;;;;6.50;4.40;;;16.40;98.30;;;;;;5040312;28;20033;-75
2021/10/25 13:40:25;;;;;;;7.18;4.90;;;16.40;98.50;;;;;;5040731;28;20039;-75
2021/10/25 13:42:51;;;;;;;9.15;5.10;;;16.30;98.60;;;;;;5038899;28;20048;-75
2021/10/25 13:45:17;;;;;;;11.48;4.13;;;16.20;98.60;;;;;;5035096;28;20057;-76
2021/10/25 13:47:43;;;;;;;10.15;4.88;;;16.30;98.30;;;;;;5036338;28;20025;-75
2021/10/25 13:50:09;;;;;;;6.00;4.78;;;16.30;98.30;;;;;;5017631;28;20093;-76
2021/10/25 13:52:36;;;;;;;7.68;4.00;;;16.30;98.50;;;;;;5036411;28;20079;-75
2021/10/25 13:55:04;;;;;;;7.50;4.38;;;16.20;98.30;;;;;;5018310;28;20022;-75
2021/10/25 13:57:35;;;;;;;6.22;3.80;;;16.30;98.10;;;;;;5036614;28;20112;-76
2021/10/25 14:00:00;;;;;;;8.73;4.00;;;16.20;98.40;;;;;;5036189;28;20109;-76
2021/10/25 14:02:30;;;;;;;7.10;4.18;;;16.20;97.80;;;;;;5035902;28;20061;-75
2021/10/25 14:04:59;;;;;;;9.15;4.43;;;16.30;97.40;;;;;;5035573;28;20017;-76
2021/10/25 14:07:31;;;;;;;7.18;3.45;;;16.20;97.70;;;;;;5036862;28;20649;-77
2021/10/25 14:10:44;;;;;;;6.85;3.47;;;16.20;97.40;;;;;;5037822;28;20025;-77
2021/10/25 14:12:47;;;;;;;8.30;3.78;;;16.20;96.40;;;;;;5026911;28;20087;-75
2021/10/25 14:15:28;;;;;;;3.60;2.90;;;16.20;96.20;;;;;;5035240;28;20029;-76
2021/10/25 14:17:56;;;;;;;3.95;2.47;;;16.30;95.30;;;;;;5016868;28;20036;-75
2021/10/25 14:20:25;;;;;;;5.63;2.53;;;16.20;94.80;;;;;;5034668;28;20100;-77
2021/10/25 14:22:55;;;;;;;3.38;2.50;;;16.10;94.50;;;;;;5017732;28;20121;-76
2021/10/25 14:25:21;;;;;;;3.65;2.40;;;16.30;93.30;;;;;;5035259;28;20397;-76
2021/10/25 14:27:47;;;;;;;5.20;2.60;;;16.20;93.70;;;;;;5035460;28;20033;-77
2021/10/25 14:30:13;;;;;;;3.38;2.30;;;16.20;93.90;;;;;;5035513;28;20025;-75
2021/10/25 14:32:40;;;;;;;3.97;2.08;;;16.00;93.80;;;;;;5008908;28;20482;-75